Time;durP1;ratioP1;P1;durP2;ratioP2;P2;SDS_P1;SDS_P2;PMS_P1;PMS_P2;Temp;Humidity;BMP_temperature;BMP_pressure;BME280_temperature;BME280_humidity;BME280_pressure;Samples;Min_cycle;Max_cycle;Signal;HPM_P1;HPM_P2
2023/05/02 00:01:33;;;;;;;22.90;9.90;;;;;;;8.09;52.85;101210.05;125071;1086;104381;-78
2023/05/02 00:04:01;;;;;;;25.73;10.50;;;;;;;8.03;53.02;101210.59;125088;1086;104418;-78
2023/05/02 00:06:31;;;;;;;24.30;11.00;;;;;;;8.00;53.09;101223.48;125095;1086;104344;-78
2023/05/02 00:08:59;;;;;;;22.17;9.90;;;;;;;7.96;54.13;101225.83;124989;1085;104232;-79
2023/05/02 00:11:28;;;;;;;26.30;10.45;;;;;;;7.89;54.26;101229.81;125060;1086;104257;-79
2023/05/02 00:13:56;;;;;;;24.07;9.87;;;;;;;7.85;53.76;101227.82;124981;1086;104305;-79
2023/05/02 00:16:25;;;;;;;22.03;9.77;;;;;;;7.84;53.91;101224.31;124889;1086;104350;-78
2023/05/02 00:18:53;;;;;;;23.90;10.07;;;;;;;7.83;54.63;101224.23;124996;1086;104363;-79
2023/05/02 00:21:22;;;;;;;25.57;9.97;;;;;;;7.80;54.59;101222.33;125096;1086;104280;-79
2023/05/02 00:23:52;;;;;;;22.23;10.07;;;;;;;7.77;54.52;101224.75;125013;1086;104485;-79
2023/05/02 00:26:20;;;;;;;21.83;10.10;;;;;;;7.73;55.03;101230.63;125374;1086;104229;-78
2023/05/02 00:28:50;;;;;;;23.10;9.73;;;;;;;7.66;56.00;101226.73;125179;1086;104359;-77
2023/05/02 00:31:18;;;;;;;22.40;9.50;;;;;;;7.62;55.51;101232.61;124934;1086;104861;-78
2023/05/02 00:33:47;;;;;;;24.20;9.80;;;;;;;7.60;55.44;101233.31;124849;1086;104404;-79
2023/05/02 00:36:16;;;;;;;22.93;9.00;;;;;;;7.58;55.14;101232.34;124998;1086;104364;-78
2023/05/02 00:38:46;;;;;;;27.17;9.83;;;;;;;7.54;55.12;101239.98;125028;1086;104286;-79
2023/05/02 00:41:16;;;;;;;22.00;9.23;;;;;;;7.52;55.76;101236.36;125014;1086;104286;-78
2023/05/02 00:43:44;;;;;;;25.37;10.00;;;;;;;7.49;55.06;101235.29;125018;1086;104481;-78
2023/05/02 00:46:14;;;;;;;23.80;9.80;;;;;;;7.48;55.46;101238.70;125019;1086;104306;-78
2023/05/02 00:48:44;;;;;;;27.03;9.43;;;;;;;7.46;55.53;101233.38;124986;1086;104238;-78
2023/05/02 00:51:12;;;;;;;23.00;9.77;;;;;;;7.45;55.40;101236.83;124989;1086;104347;-78
2023/05/02 00:53:41;;;;;;;26.20;10.17;;;;;;;7.46;55.72;101238.60;125053;1086;104300;-78
2023/05/02 00:56:10;;;;;;;23.25;10.30;;;;;;;7.50;55.56;101232.77;124912;1086;104356;-78
2023/05/02 00:58:39;;;;;;;23.87;11.00;;;;;;;7.53;55.37;101232.95;125039;1086;104366;-79
2023/05/02 01:01:35;;;;;;;21.57;10.00;;;;;;;7.56;55.38;101234.86;125000;1086;104185;-80
2023/05/02 01:04:31;;;;;;;27.47;9.77;;;;;;;7.58;55.03;101238.45;124986;1086;104370;-78
2023/05/02 01:07:12;;;;;;;27.73;10.20;;;;;;;7.58;55.61;101243.67;124989;1086;104281;-80
2023/05/02 01:09:52;;;;;;;39.57;12.20;;;;;;;7.55;55.49;101235.66;124928;1086;104405;-79
2023/05/02 01:12:29;;;;;;;28.47;11.00;;;;;;;7.53;55.17;101243.40;125105;1086;104391;-78
2023/05/02 01:15:01;;;;;;;82.40;16.67;;;;;;;7.51;55.54;101244.11;124975;1086;104241;-79
2023/05/02 01:17:33;;;;;;;35.73;12.53;;;;;;;7.45;55.74;101238.52;125074;1086;104232;-78
2023/05/02 01:20:05;;;;;;;26.07;11.93;;;;;;;7.44;56.09;101245.45;125047;1086;104369;-78
2023/05/02 01:22:36;;;;;;;24.00;11.37;;;;;;;7.38;56.09;101239.86;124948;1086;104618;-78
2023/05/02 01:25:18;;;;;;;22.60;10.80;;;;;;;7.32;56.49;101242.10;125030;1086;104289;-78
2023/05/02 01:27:56;;;;;;;23.83;11.00;;;;;;;7.26;56.20;101240.05;125006;1086;104258;-79
2023/05/02 01:30:29;;;;;;;25.27;11.63;;;;;;;7.24;56.38;101235.52;125048;1086;104312;-79
2023/05/02 01:33:01;;;;;;;26.87;10.13;;;;;;;7.29;56.08;101232.40;125087;1086;104241;-79
2023/05/02 01:35:32;;;;;;;28.07;10.67;;;;;;;7.34;56.40;101222.23;124972;1086;104385;-80
2023/05/02 01:38:02;;;;;;;22.87;10.97;;;;;;;7.36;56.56;101225.83;124966;1086;104347;-80
2023/05/02 01:40:33;;;;;;;25.53;10.07;;;;;;;7.38;56.64;101229.42;125086;1086;104341;-79
2023/05/02 01:43:05;;;;;;;21.43;10.20;;;;;;;7.42;56.51;101235.72;125089;1086;104324;-80
2023/05/02 01:45:36;;;;;;;27.90;10.50;;;;;;;7.43;56.93;101235.81;125261;1086;104710;-77
2023/05/02 01:48:07;;;;;;;24.97;10.00;;;;;;;7.39;56.37;101231.23;124974;1085;104353;-79
2023/05/02 01:50:38;;;;;;;23.73;10.07;;;;;;;7.34;56.65;101235.28;125035;1086;104232;-79
2023/05/02 01:53:10;;;;;;;22.03;9.80;;;;;;;7.32;56.99;101236.88;125083;1086;104369;-78
2023/05/02 01:55:44;;;;;;;27.80;10.63;;;;;;;7.24;56.75;101228.58;125083;1086;104232;-80
2023/05/02 01:58:16;;;;;;;21.73;9.73;;;;;;;7.16;57.53;101242.88;125043;1086;104258;-80
2023/05/02 02:00:46;;;;;;;22.75;10.30;;;;;;;7.06;57.81;101243.11;125002;1086;104328;-80
2023/05/02 02:03:16;;;;;;;24.17;10.10;;;;;;;6.97;57.96;101246.97;125023;1086;104353;-79
2023/05/02 02:05:48;;;;;;;25.30;9.77;;;;;;;6.90;58.10;101244.77;125104;1086;104213;-79
2023/05/02 02:08:16;;;;;;;27.50;10.60;;;;;;;6.84;58.36;101245.31;124985;1086;104353;-79
2023/05/02 02:10:49;;;;;;;25.70;10.00;;;;;;;6.79;57.91;101244.13;124886;1086;104379;-79
2023/05/02 02:13:22;;;;;;;22.10;9.13;;;;;;;6.78;58.08;101244.03;125080;1086;104292;-80
2023/05/02 02:15:58;;;;;;;24.93;9.93;;;;;;;6.77;57.86;101243.11;124967;1086;104375;-79
2023/05/02 02:18:28;;;;;;;23.00;9.40;;;;;;;6.83;58.10;101238.28;125019;1086;104190;-79
2023/05/02 02:21:00;;;;;;;24.73;9.27;;;;;;;6.88;58.09;101240.28;125144;1086;104222;-79
2023/05/02 02:23:29;;;;;;;21.83;9.83;;;;;;;6.90;58.06;101249.09;125020;1086;104447;-79
2023/05/02 02:25:58;;;;;;;20.93;9.07;;;;;;;6.93;57.93;101244.07;125054;1086;104433;-80
2023/05/02 02:28:27;;;;;;;20.70;9.60;;;;;;;6.89;58.22;101244.67;125177;1086;104241;-79
2023/05/02 02:30:56;;;;;;;22.57;8.90;;;;;;;6.87;58.32;101248.91;125112;1086;104264;-79
2023/05/02 02:33:29;;;;;;;21.40;9.47;;;;;;;6.80;59.11;101245.91;125074;1085;104162;-80
2023/05/02 02:36:07;;;;;;;23.07;9.63;;;;;;;6.67;59.16;101245.97;125071;1085;104318;-80
2023/05/02 02:38:44;;;;;;;23.70;9.33;;;;;;;6.54;59.78;101253.80;125086;1086;104347;-79
2023/05/02 02:41:18;;;;;;;22.23;9.43;;;;;;;6.42;60.65;101253.90;125087;1086;104231;-79
2023/05/02 02:44:00;;;;;;;22.63;9.37;;;;;;;6.31;59.80;101255.84;125304;1086;104238;-79
2023/05/02 02:46:41;;;;;;;19.97;9.27;;;;;;;6.24;60.30;101251.91;125029;1086;104346;-80
2023/05/02 02:49:21;;;;;;;20.23;9.40;;;;;;;6.20;60.33;101262.03;125062;1086;104316;-80
2023/05/02 02:51:57;;;;;;;23.70;9.23;;;;;;;6.15;60.83;101263.45;125179;1086;104353;-79
2023/05/02 02:54:34;;;;;;;23.83;9.60;;;;;;;6.11;60.96;101263.25;125183;1086;104299;-78
2023/05/02 02:57:12;;;;;;;25.67;8.97;;;;;;;6.04;61.31;101263.63;125163;1085;104287;-78
2023/05/02 02:59:49;;;;;;;22.70;9.20;;;;;;;6.04;61.15;101263.63;125193;1086;104232;-79
2023/05/02 03:02:23;;;;;;;23.73;9.07;;;;;;;6.05;60.87;101264.56;125447;1086;104231;-78
2023/05/02 03:04:53;;;;;;;23.53;9.80;;;;;;;6.07;60.62;101266.44;125199;1086;104364;-78
2023/05/02 03:07:22;;;;;;;24.70;10.30;;;;;;;6.07;61.50;101261.23;125172;1085;104308;-78
2023/05/02 03:09:51;;;;;;;22.07;9.27;;;;;;;6.09;61.12;101262.26;125087;1086;104674;-78
2023/05/02 03:12:23;;;;;;;22.13;8.97;;;;;;;6.16;60.94;101262.66;125048;1086;104343;-78
2023/05/02 03:15:02;;;;;;;20.63;8.97;;;;;;;6.21;60.61;101271.67;125397;1086;104231;-79
2023/05/02 03:17:32;;;;;;;23.53;9.17;;;;;;;6.27;60.96;101269.47;125346;1086;104344;-78
2023/05/02 03:20:02;;;;;;;24.07;9.57;;;;;;;6.29;60.95;101267.85;125165;1086;104241;-78
2023/05/02 03:22:30;;;;;;;24.90;9.80;;;;;;;6.28;61.14;101274.78;125123;1086;104238;-78
2023/05/02 03:25:00;;;;;;;24.25;9.45;;;;;;;6.29;61.05;101273.06;125173;1086;104282;-77
2023/05/02 03:27:30;;;;;;;22.00;9.10;;;;;;;6.29;61.25;101273.06;125150;1086;104335;-77
2023/05/02 03:30:00;;;;;;;24.80;9.20;;;;;;;6.28;61.92;101277.39;125120;1086;104465;-79
2023/05/02 03:32:29;;;;;;;21.73;8.67;;;;;;;6.29;61.46;101287.02;125294;1086;104260;-79
2023/05/02 03:34:58;;;;;;;23.23;9.00;;;;;;;6.36;61.59;101287.39;125354;1085;104226;-79
2023/05/02 03:37:28;;;;;;;24.45;9.25;;;;;;;6.41;61.30;101289.50;125379;1086;104235;-79
2023/05/02 03:39:59;;;;;;;29.03;11.87;;;;;;;6.42;61.54;101295.61;125360;1086;104363;-80
2023/05/02 03:42:27;;;;;;;24.10;10.60;;;;;;;6.43;62.22;101297.42;125098;1086;104344;-78
2023/05/02 03:44:56;;;;;;;23.25;10.45;;;;;;;6.44;61.62;101304.45;125102;1086;104206;-78
2023/05/02 03:47:25;;;;;;;21.50;10.20;;;;;;;6.47;61.77;101305.55;125067;1086;104707;-79
2023/05/02 03:49:53;;;;;;;23.30;10.60;;;;;;;6.54;61.94;101300.73;125229;1086;104298;-79
2023/05/02 03:52:23;;;;;;;20.23;9.50;;;;;;;6.56;61.87;101304.33;125082;1086;104353;-80
2023/05/02 03:54:52;;;;;;;22.85;10.15;;;;;;;6.57;62.10;101296.61;125294;1086;104363;-80
2023/05/02 03:57:21;;;;;;;20.47;9.10;;;;;;;6.58;62.17;101302.75;125318;1086;104800;-79
2023/05/02 03:59:49;;;;;;;21.53;9.93;;;;;;;6.63;62.00;101301.33;125432;1086;104197;-80
2023/05/02 04:02:24;;;;;;;19.62;9.35;;;;;;;6.68;62.14;101299.91;125401;1086;104484;-78
2023/05/02 04:04:52;;;;;;;23.03;9.03;;;;;;;6.74;62.19;101299.41;125344;1086;104311;-79
2023/05/02 04:07:24;;;;;;;22.00;10.40;;;;;;;6.79;62.40;101300.59;125226;1086;104222;-78
2023/05/02 04:10:14;;;;;;;22.60;9.77;;;;;;;6.87;62.64;101308.91;125337;1086;104212;-78
2023/05/02 04:12:45;;;;;;;28.87;9.57;;;;;;;6.91;62.64;101308.31;125176;1086;104369;-74
2023/05/02 04:15:14;;;;;;;27.87;10.30;;;;;;;6.97;62.61;101308.70;125090;1086;104337;-75
2023/05/02 04:17:43;;;;;;;23.07;8.70;;;;;;;7.06;62.38;101305.75;124746;1086;104372;-75
2023/05/02 04:20:14;;;;;;;23.03;8.90;;;;;;;7.14;62.49;101314.98;124835;1085;104339;-75
2023/05/02 04:22:48;;;;;;;25.30;9.73;;;;;;;7.23;62.55;101319.86;125150;1086;104245;-77
2023/05/02 04:25:18;;;;;;;23.40;8.90;;;;;;;7.30;62.69;101322.05;125515;1086;104235;-77
2023/05/02 04:27:46;;;;;;;22.57;9.33;;;;;;;7.37;63.04;101325.14;125213;1086;104241;-78
2023/05/02 04:30:18;;;;;;;24.50;9.20;;;;;;;7.44;62.96;101321.19;125165;1086;104255;-79
2023/05/02 04:33:23;;;;;;;23.30;9.60;;;;;;;7.51;63.00;101325.98;125553;1086;104363;-78
2023/05/02 04:35:52;;;;;;;27.95;10.70;;;;;;;7.61;62.98;101327.44;125344;1086;104423;-78
2023/05/02 04:38:23;;;;;;;23.27;9.80;;;;;;;7.69;62.60;101331.41;125227;1086;104416;-78
2023/05/02 04:40:52;;;;;;;24.57;9.73;;;;;;;7.82;62.88;101332.16;125248;1086;104379;-78
2023/05/02 04:43:25;;;;;;;;;;;;;;;7.92;63.53;101337.13;125693;1086;104232;-77
2023/05/02 04:45:58;;;;;;;24.27;9.97;;;;;;;8.03;63.02;101336.05;125492;1086;104289;-79
2023/05/02 04:48:30;;;;;;;25.67;10.77;;;;;;;8.14;63.05;101333.19;125089;1086;104427;-78
2023/05/02 04:50:59;;;;;;;26.47;10.23;;;;;;;8.23;63.16;101334.61;125479;1086;104236;-77
2023/05/02 04:53:28;;;;;;;27.93;10.60;;;;;;;8.33;62.74;101345.61;125617;1086;104214;-77
2023/05/02 04:56:04;;;;;;;27.90;10.20;;;;;;;8.44;62.70;101347.16;125635;1086;104273;-78
2023/05/02 04:58:35;;;;;;;26.70;10.47;;;;;;;8.56;62.91;101341.75;125142;1086;104382;-77
2023/05/02 05:01:08;;;;;;;25.10;11.20;;;;;;;8.68;62.62;101334.59;125594;1086;104284;-78
2023/05/02 05:03:36;;;;;;;28.20;10.73;;;;;;;8.79;62.52;101327.35;125595;1086;104162;-76
2023/05/02 05:06:05;;;;;;;27.57;10.80;;;;;;;8.94;62.83;101337.76;125480;1086;104331;-78
2023/05/02 05:08:35;;;;;;;29.43;11.17;;;;;;;9.08;62.11;101336.80;125660;1085;104375;-77
2023/05/02 05:11:04;;;;;;;29.97;12.90;;;;;;;9.25;62.83;101329.86;125983;1086;104363;-77
2023/05/02 05:13:33;;;;;;;24.03;11.17;;;;;;;9.38;62.09;101326.22;125665;1086;104162;-74
2023/05/02 05:16:02;;;;;;;27.50;12.00;;;;;;;9.53;61.89;101328.73;126161;1086;104356;-75
2023/05/02 05:18:39;;;;;;;29.07;12.30;;;;;;;9.65;62.51;101334.63;125470;1086;104220;-76
2023/05/02 05:21:09;;;;;;;28.27;11.70;;;;;;;9.81;61.97;101338.05;126230;1086;104286;-75
2023/05/02 05:23:44;;;;;;;30.97;11.80;;;;;;;9.94;62.35;101339.58;126047;1086;104672;-74
2023/05/02 05:26:14;;;;;;;30.00;11.97;;;;;;;10.08;61.82;101339.48;125850;1086;104232;-76
2023/05/02 05:28:46;;;;;;;29.33;11.60;;;;;;;10.20;61.91;101339.19;128042;1086;101668;-79
2023/05/02 05:31:15;;;;;;;34.37;11.57;;;;;;;10.36;61.80;101343.53;127152;1086;104229;-78
2023/05/02 05:33:48;;;;;;;27.43;11.70;;;;;;;10.52;61.77;101345.19;126485;1086;104190;-78
2023/05/02 05:36:17;;;;;;;27.70;12.07;;;;;;;10.68;61.27;101343.32;126298;1086;104187;-77
2023/05/02 05:38:46;;;;;;;30.10;10.93;;;;;;;10.79;61.15;101331.61;126037;1086;104165;-77
2023/05/02 05:41:14;;;;;;;25.00;10.73;;;;;;;10.89;60.95;101330.31;126731;1085;104161;-76
2023/05/02 05:43:59;;;;;;;21.77;8.97;;;;;;;11.00;60.43;101342.25;126098;1086;104443;-77
2023/05/02 05:46:28;;;;;;;19.00;7.10;;;;;;;11.14;58.89;101346.41;126376;1086;104146;-75
2023/05/02 05:48:57;;;;;;;19.07;7.63;;;;;;;11.25;58.03;101341.66;126381;1086;104238;-76
2023/05/02 05:51:27;;;;;;;17.53;7.73;;;;;;;11.36;57.94;101339.53;126301;1086;104244;-78
2023/05/02 05:53:57;;;;;;;18.50;7.90;;;;;;;11.51;57.64;101342.86;126358;1086;104245;-76
2023/05/02 05:56:29;;;;;;;17.20;7.67;;;;;;;11.68;56.01;101334.81;126758;1086;104212;-73
2023/05/02 05:59:09;;;;;;;18.33;7.37;;;;;;;11.83;57.10;101340.75;126163;1086;104344;-76
2023/05/02 06:01:38;;;;;;;17.37;7.40;;;;;;;11.96;56.05;101346.59;126366;1086;104213;-76
2023/05/02 06:04:07;;;;;;;21.47;7.33;;;;;;;12.02;55.95;101347.73;127102;1086;104235;-80
2023/05/02 06:06:40;;;;;;;17.10;6.80;;;;;;;12.13;56.54;101353.47;126665;1086;104209;-80
2023/05/02 06:09:11;;;;;;;29.50;8.33;;;;;;;12.26;56.62;101348.73;126833;1086;102665;-82
2023/05/02 06:11:40;;;;;;;24.97;8.73;;;;;;;12.38;56.43;101351.87;126379;1086;104430;-77
2023/05/02 06:14:10;;;;;;;20.20;8.30;;;;;;;12.47;56.19;101354.90;126781;1086;104107;-78
2023/05/02 06:16:39;;;;;;;18.90;8.13;;;;;;;12.54;55.88;101345.52;126652;1086;102227;-81
2023/05/02 06:19:09;;;;;;;20.33;7.80;;;;;;;12.66;56.03;101342.50;126809;1086;102229;-84
2023/05/02 06:21:38;;;;;;;20.67;8.20;;;;;;;12.83;55.66;101346.70;126612;1086;102380;-80
2023/05/02 06:24:17;;;;;;;;;;;;;;;;;;;;;
2023/05/02 06:26:56;;;;;;;24.53;9.03;;;;;;;13.03;53.81;101347.48;126979;1086;103674;-78
2023/05/02 06:29:26;;;;;;;20.57;8.80;;;;;;;13.15;54.80;101341.81;126576;1087;102224;-79
2023/05/02 06:31:57;;;;;;;19.57;8.17;;;;;;;13.25;54.64;101340.42;127057;1086;111095;-81
2023/05/02 06:34:26;;;;;;;20.57;8.40;;;;;;;13.38;53.93;101336.53;126871;1086;102286;-78
2023/05/02 06:36:56;;;;;;;17.57;8.00;;;;;;;13.57;54.21;101335.47;126641;1086;104257;-80
2023/05/02 06:39:27;;;;;;;22.53;8.47;;;;;;;13.74;54.46;101339.61;127008;1086;104382;-76
2023/05/02 06:41:58;;;;;;;25.63;9.17;;;;;;;13.84;54.42;101346.14;127055;1086;102503;-77
2023/05/02 06:44:30;;;;;;;20.37;8.10;;;;;;;13.89;53.57;101341.92;126900;1086;102997;-79
2023/05/02 06:47:05;;;;;;;23.90;8.23;;;;;;;14.04;52.92;101349.49;127084;1086;102209;-79
2023/05/02 06:49:37;;;;;;;17.53;7.40;;;;;;;14.21;53.46;101336.88;126836;1086;104261;-76
2023/05/02 06:52:09;;;;;;;17.80;7.40;;;;;;;14.39;53.69;101342.75;126336;1086;102266;-79
2023/05/02 06:54:41;;;;;;;20.43;7.17;;;;;;;14.49;53.39;101336.06;126662;1085;104158;-78
2023/05/02 06:57:10;;;;;;;15.57;6.67;;;;;;;14.63;53.13;101333.91;126840;1086;102930;-76
2023/05/02 06:59:39;;;;;;;17.67;7.20;;;;;;;14.74;53.21;101340.42;127111;1086;102337;-78
2023/05/02 07:02:10;;;;;;;20.00;7.57;;;;;;;14.99;52.44;101341.20;126786;1086;104288;-73
2023/05/02 07:04:39;;;;;;;16.10;6.53;;;;;;;15.17;51.35;101335.56;127116;1086;104436;-79
2023/05/02 07:07:07;;;;;;;15.97;6.90;;;;;;;15.31;50.87;101343.03;127024;1086;104095;-75
2023/05/02 07:09:36;;;;;;;21.30;8.27;;;;;;;15.50;51.42;101347.09;126945;1086;104225;-76
2023/05/02 07:12:08;;;;;;;18.43;6.47;;;;;;;15.68;50.74;101350.28;126712;1086;102526;-78
2023/05/02 07:14:37;;;;;;;16.90;7.30;;;;;;;15.90;50.01;101353.56;126239;1086;104350;-77
2023/05/02 07:17:07;;;;;;;23.77;7.23;;;;;;;16.07;50.64;101352.26;126998;1086;104165;-78
2023/05/02 07:19:39;;;;;;;17.03;5.93;;;;;;;16.23;50.26;101350.02;128463;1086;101696;-76
2023/05/02 07:22:12;;;;;;;19.10;6.97;;;;;;;16.43;49.41;101347.89;128384;1086;101724;-75
2023/05/02 07:24:58;;;;;;;18.43;6.50;;;;;;;16.49;48.86;101348.92;127139;1086;104152;-79
2023/05/02 07:27:27;;;;;;;16.10;5.43;;;;;;;16.62;47.56;101346.58;126695;1086;104144;-76
2023/05/02 07:29:56;;;;;;;17.40;5.57;;;;;;;16.67;47.62;101347.58;126935;1086;103104;-76
2023/05/02 07:32:26;;;;;;;15.00;5.13;;;;;;;16.81;48.48;101346.18;126694;1085;104159;-78
2023/05/02 07:34:56;;;;;;;10.83;4.47;;;;;;;16.99;46.78;101345.72;126498;1086;104295;-75
2023/05/02 07:37:33;;;;;;;13.60;4.40;;;;;;;17.06;47.58;101342.37;126803;1086;104175;-77
2023/05/02 07:40:02;;;;;;;13.22;5.10;;;;;;;17.12;47.22;101341.59;126755;1086;102350;-77
2023/05/02 07:42:36;;;;;;;12.70;4.80;;;;;;;17.15;46.30;101346.08;126885;1086;104309;-81
2023/05/02 07:45:09;;;;;;;11.10;4.20;;;;;;;17.23;46.91;101345.39;126552;1086;104385;-77
2023/05/02 07:47:38;;;;;;;16.57;5.60;;;;;;;17.40;45.75;101348.38;128122;1086;101854;-77
2023/05/02 07:50:09;;;;;;;13.30;4.90;;;;;;;17.46;45.84;101346.74;127973;1086;102535;-78
2023/05/02 07:52:44;;;;;;;12.90;4.63;;;;;;;17.50;46.18;101344.19;126437;1086;104234;-81
2023/05/02 07:55:14;;;;;;;12.03;3.63;;;;;;;17.74;45.05;101343.77;126657;1086;104202;-80
2023/05/02 07:57:52;;;;;;;8.80;4.17;;;;;;;18.01;44.76;101347.84;126378;1086;104289;-81
2023/05/02 08:00:21;;;;;;;9.83;3.97;;;;;;;18.20;44.47;101346.45;126494;1086;104238;-79
2023/05/02 08:02:51;;;;;;;13.60;3.50;;;;;;;18.27;44.03;101344.78;127064;1086;104152;-79
2023/05/02 08:05:20;;;;;;;9.63;3.23;;;;;;;18.25;44.02;101350.06;126934;1086;102941;-80
2023/05/02 08:07:54;;;;;;;;;;;;;;;18.38;42.89;101352.94;126757;1086;102120;-77
2023/05/02 08:10:28;;;;;;;8.85;3.20;;;;;;;18.48;43.89;101354.87;126744;1086;104197;-77
2023/05/02 08:12:57;;;;;;;8.10;3.00;;;;;;;18.52;41.04;101358.49;126581;1086;105574;-79
2023/05/02 08:15:30;;;;;;;4.33;2.53;;;;;;;18.71;41.83;101351.70;126298;1089;104236;-76
2023/05/02 08:18:00;;;;;;;8.53;2.65;;;;;;;18.80;40.57;101346.53;126479;1086;104241;-76
2023/05/02 08:20:30;;;;;;;4.50;2.43;;;;;;;18.86;41.09;101344.89;126423;1086;104027;-76
2023/05/02 08:22:59;;;;;;;5.53;2.80;;;;;;;18.88;41.21;101338.70;126773;1087;104066;-78
2023/05/02 08:25:34;;;;;;;4.77;2.10;;;;;;;18.95;40.15;101346.80;126463;1086;102364;-77
2023/05/02 08:28:03;;;;;;;6.60;2.40;;;;;;;18.86;39.56;101357.30;126792;1086;102082;-77
2023/05/02 08:30:33;;;;;;;3.23;2.43;;;;;;;18.82;39.43;101335.06;126538;1086;104178;-76
2023/05/02 08:33:03;;;;;;;9.17;3.03;;;;;;;18.85;39.40;101343.13;126689;1086;104396;-79
2023/05/02 08:35:32;;;;;;;6.57;2.80;;;;;;;18.89;38.76;101333.41;126846;1086;102482;-76
2023/05/02 08:38:03;;;;;;;10.30;2.87;;;;;;;19.01;39.61;101341.57;126530;1086;104154;-77
2023/05/02 08:40:38;;;;;;;4.70;2.43;;;;;;;19.14;39.33;101333.77;126436;1086;104449;-78
2023/05/02 08:43:08;;;;;;;4.10;2.43;;;;;;;19.28;37.99;101337.50;126401;1086;104149;-74
2023/05/02 08:45:41;;;;;;;6.07;2.10;;;;;;;19.48;38.35;101343.08;126552;1086;102526;-78
2023/05/02 08:48:15;;;;;;;6.20;2.03;;;;;;;19.65;37.51;101345.03;126707;1086;102407;-77
2023/05/02 08:50:48;;;;;;;6.70;2.40;;;;;;;19.66;37.29;101342.39;126726;1086;104234;-77
2023/05/02 08:53:19;;;;;;;5.57;2.30;;;;;;;19.66;37.69;101342.39;126626;1086;104206;-80
2023/05/02 08:55:53;;;;;;;2.67;1.77;;;;;;;19.59;37.15;101329.91;126376;1086;104374;-79
2023/05/02 08:58:24;;;;;;;8.80;2.50;;;;;;;19.65;36.37;101335.30;126703;1085;104393;-79
2023/05/02 09:01:04;;;;;;;9.00;2.23;;;;;;;19.78;36.51;101340.80;127021;1086;102569;-76
2023/05/02 09:03:53;;;;;;;5.37;2.47;;;;;;;19.95;35.75;101333.88;127060;1086;104232;-79
2023/05/02 09:06:29;;;;;;;8.33;2.43;;;;;;;20.15;35.16;101330.50;127050;1086;104213;-77
2023/05/02 09:09:03;;;;;;;6.87;2.80;;;;;;;20.07;35.69;101327.77;126885;1086;102410;-79
2023/05/02 09:11:45;;;;;;;6.07;2.60;;;;;;;20.07;35.41;101336.67;126813;1086;102947;-79
2023/05/02 09:14:20;;;;;;;5.43;2.20;;;;;;;19.99;35.46;101332.13;126663;1086;104270;-79
2023/05/02 09:17:04;;;;;;;7.70;2.60;;;;;;;20.04;35.13;101331.31;126803;1086;102483;-80
2023/05/02 09:19:38;;;;;;;6.90;2.20;;;;;;;20.23;34.43;101324.38;126983;1086;102585;-81
2023/05/02 09:22:08;;;;;;;6.93;2.43;;;;;;;20.40;34.09;101326.31;126760;1085;104159;-78
2023/05/02 09:24:41;;;;;;;8.90;1.83;;;;;;;20.52;32.85;101326.41;126856;1086;102246;-79
2023/05/02 09:27:10;;;;;;;8.63;2.20;;;;;;;20.51;32.86;101335.28;126533;1086;104542;-80
2023/05/02 09:29:45;;;;;;;3.80;1.93;;;;;;;20.34;33.54;101327.14;126881;1086;104338;-78
2023/05/02 09:32:50;;;;;;;3.33;2.10;;;;;;;20.32;33.13;101328.91;126835;1086;102127;-79
2023/05/02 09:35:25;;;;;;;9.70;2.30;;;;;;;20.21;32.90;101323.48;126824;1086;102448;-76
2023/05/02 09:38:21;;;;;;;3.65;2.00;;;;;;;20.05;32.20;101325.08;127184;1086;102208;-81
2023/05/02 09:40:56;;;;;;;4.93;2.03;;;;;;;19.86;32.73;101320.47;127722;1086;104274;-78
2023/05/02 09:43:36;;;;;;;8.23;2.30;;;;;;;19.92;32.93;101312.54;126911;1086;104242;-76
2023/05/02 09:46:06;;;;;;;5.90;2.03;;;;;;;20.09;32.78;101304.72;126592;1089;104229;-80
2023/05/02 09:49:09;;;;;;;3.02;2.25;;;;;;;20.10;32.52;101306.48;126728;1086;104228;-78
2023/05/02 09:52:17;;;;;;;3.00;1.97;;;;;;;20.11;31.75;101303.83;126732;1086;102052;-76
2023/05/02 09:58:46;;;;;;;8.43;2.40;;;;;;;20.17;32.06;101300.34;127072;1086;102530;-78
2023/05/02 10:01:58;;;;;;;;;;;;;;;;;;;;;
2023/05/02 10:04:54;;;;;;;4.90;1.90;;;;;;;20.34;31.79;101297.82;126437;1089;104216;-80
2023/05/02 10:08:28;;;;;;;4.20;2.03;;;;;;;20.50;31.14;101287.28;126388;1089;104321;-75
2023/05/02 10:11:46;;;;;;;2.27;2.07;;;;;;;20.46;30.44;101283.71;126673;1089;102671;-76
2023/05/02 10:14:24;;;;;;;4.90;2.23;;;;;;;20.53;30.16;101284.64;126741;1089;102486;-78
2023/05/02 10:17:15;;;;;;;5.27;2.33;;;;;;;20.54;30.27;101287.31;126729;1090;102515;-81
2023/05/02 10:19:56;;;;;;;4.90;1.80;;;;;;;20.50;30.94;101285.50;126843;1089;102638;-74
2023/05/02 10:22:33;;;;;;;4.43;2.30;;;;;;;20.31;30.72;101286.25;126977;1086;102508;-78
2023/05/02 10:25:04;;;;;;;12.78;2.80;;;;;;;20.39;30.42;101276.53;127126;1086;104297;-77
2023/05/02 10:27:36;;;;;;;2.73;2.17;;;;;;;20.46;30.67;101281.05;126885;1086;102359;-79
2023/05/02 10:30:16;;;;;;;12.20;2.80;;;;;;;20.50;30.29;101280.16;127210;1086;104216;-79
2023/05/02 10:32:53;;;;;;;4.10;2.10;;;;;;;20.36;30.27;101282.72;127378;1086;104162;-76
2023/05/02 10:35:30;;;;;;;7.50;2.23;;;;;;;20.23;29.12;101287.07;127167;1086;102388;-77
2023/05/02 10:38:14;;;;;;;5.07;2.13;;;;;;;20.33;30.13;101289.81;127486;1085;102212;-79
2023/05/02 10:40:55;;;;;;;3.73;1.80;;;;;;;20.38;29.86;101286.31;127365;1086;102134;-78
2023/05/02 10:43:55;;;;;;;5.20;2.33;;;;;;;20.43;29.60;101287.23;126896;1086;102263;-76
2023/05/02 10:46:35;;;;;;;5.47;2.10;;;;;;;20.52;28.73;101288.17;126846;1086;102248;-74
2023/05/02 10:49:07;;;;;;;5.37;2.10;;;;;;;20.57;29.32;101270.42;126817;1086;102338;-75
2023/05/02 10:51:40;;;;;;;5.27;2.27;;;;;;;20.74;28.77;101284.82;127015;1086;102188;-78
2023/05/02 10:54:25;;;;;;;2.20;1.90;;;;;;;20.83;29.21;101275.97;126923;1086;104276;-78
2023/05/02 10:57:12;;;;;;;4.57;2.17;;;;;;;20.86;29.67;101267.09;126860;1086;104287;-76
2023/05/02 10:59:46;;;;;;;2.67;1.77;;;;;;;20.76;29.34;101272.38;127018;1086;102358;-74
2023/05/02 11:02:50;;;;;;;8.00;2.13;;;;;;;20.82;28.75;101271.53;127025;1086;102616;-79
2023/05/02 11:05:23;;;;;;;5.17;2.40;;;;;;;20.92;28.78;101265.34;126557;1086;104268;-80
2023/05/02 11:08:35;;;;;;;6.53;2.20;;;;;;;20.91;28.79;101262.67;126705;1086;104236;-74
2023/05/02 11:11:41;;;;;;;7.57;2.80;;;;;;;20.87;27.62;101269.77;126579;1086;104149;-75
2023/05/02 11:14:47;;;;;;;11.33;3.33;;;;;;;20.77;28.31;101263.50;126598;1086;102563;-76
2023/05/02 11:17:20;;;;;;;4.97;2.30;;;;;;;20.79;29.29;101260.84;126700;1086;104366;-74
2023/05/02 11:20:28;;;;;;;7.73;3.40;;;;;;;20.75;28.96;101265.25;126700;1085;104309;-72
2023/05/02 11:22:59;;;;;;;4.70;2.40;;;;;;;20.74;28.61;101266.16;126696;1086;102117;-74
2023/05/02 11:25:46;;;;;;;4.07;2.20;;;;;;;20.69;29.15;101262.55;126765;1086;104229;-75
2023/05/02 11:28:42;;;;;;;14.97;6.30;;;;;;;20.67;28.48;101261.66;126646;1086;117786;-75
2023/05/02 11:32:03;;;;;;;5.40;2.73;;;;;;;20.71;28.86;101260.80;126275;1086;104208;-74
2023/05/02 11:34:49;;;;;;;2.87;2.10;;;;;;;20.87;28.84;101261.77;126177;1089;102542;-74
2023/05/02 11:37:19;;;;;;;6.23;1.90;;;;;;;20.85;29.35;101262.64;126391;1086;102454;-76
2023/05/02 11:40:14;;;;;;;5.50;2.00;;;;;;;20.81;28.83;101262.62;126717;1086;102143;-74
2023/05/02 11:42:43;;;;;;;3.23;2.23;;;;;;;20.82;29.03;101251.08;126599;1086;104184;-74
2023/05/02 11:45:17;;;;;;;3.37;2.10;;;;;;;20.86;28.74;101256.42;126266;1086;104478;-73
2023/05/02 11:47:47;;;;;;;4.97;2.00;;;;;;;20.82;28.22;101259.08;126343;1086;104257;-77